createdAt,value
2022-11-08T00:00:44.563Z,13.40
2022-11-08T00:03:11.552Z,13.40
2022-11-08T00:05:57.238Z,13.40
2022-11-08T00:08:42.609Z,13.40
2022-11-08T00:11:28.066Z,14.40
2022-11-08T00:13:58.290Z,13.40
2022-11-08T00:16:26.975Z,14.80
2022-11-08T00:18:53.773Z,14.20
2022-11-08T00:21:20.595Z,13.20
2022-11-08T00:23:47.437Z,13.20
2022-11-08T00:26:14.262Z,13.20
2022-11-08T00:28:41.224Z,13.90
2022-11-08T00:31:08.168Z,13.10
2022-11-08T00:33:35.103Z,13.10
2022-11-08T00:36:03.147Z,13.00
2022-11-08T00:38:30.295Z,13.00
2022-11-08T00:40:57.127Z,13.00
2022-11-08T00:43:23.962Z,12.90
2022-11-08T00:45:50.728Z,12.90
2022-11-08T00:48:17.705Z,12.90
2022-11-08T00:50:44.777Z,12.90
2022-11-08T00:53:11.576Z,12.80
2022-11-08T00:55:38.429Z,12.80
2022-11-08T00:58:05.216Z,12.80
2022-11-08T01:00:32.225Z,12.70
2022-11-08T01:03:17.489Z,12.70
2022-11-08T01:05:44.932Z,14.00
2022-11-08T01:08:13.625Z,12.70
2022-11-08T01:10:47.332Z,12.60
2022-11-08T01:13:15.617Z,12.60
2022-11-08T01:15:45.418Z,12.60
2022-11-08T01:18:15.217Z,13.10
2022-11-08T01:20:45.413Z,12.50
2022-11-08T01:23:15.335Z,13.60
2022-11-08T01:25:45.863Z,12.50
2022-11-08T01:28:13.416Z,12.50
2022-11-08T01:30:43.835Z,12.50
2022-11-08T01:33:11.940Z,12.70
2022-11-08T01:35:39.763Z,12.50
2022-11-08T01:38:07.322Z,13.10
2022-11-08T01:40:46.921Z,12.40
2022-11-08T01:43:25.790Z,12.40
2022-11-08T01:46:39.146Z,12.40
2022-11-08T01:49:41.426Z,12.40
2022-11-08T01:52:21.416Z,12.40
2022-11-08T01:55:01.338Z,12.30
2022-11-08T01:57:56.844Z,12.30
2022-11-08T02:00:24.580Z,12.30
2022-11-08T02:03:01.812Z,12.30
2022-11-08T02:05:31.224Z,13.00
2022-11-08T02:08:22.453Z,12.20
2022-11-08T02:10:52.911Z,12.30
2022-11-08T02:13:27.333Z,12.30
2022-11-08T02:15:54.791Z,12.20
2022-11-08T02:18:26.988Z,12.20
2022-11-08T02:21:35.049Z,12.30
2022-11-08T02:24:08.006Z,12.20
2022-11-08T02:26:36.480Z,12.20
2022-11-08T02:29:30.831Z,12.20
2022-11-08T02:31:59.771Z,12.20
2022-11-08T02:34:36.619Z,12.20
2022-11-08T02:37:05.688Z,12.20
2022-11-08T02:39:34.328Z,12.20
2022-11-08T02:42:02.715Z,12.80
2022-11-08T02:44:29.936Z,12.20
2022-11-08T02:46:57.025Z,12.20
2022-11-08T02:49:24.469Z,12.20
2022-11-08T02:51:53.847Z,12.20
2022-11-08T02:54:20.978Z,12.20
2022-11-08T02:56:47.931Z,12.20
2022-11-08T02:59:15.370Z,12.20
2022-11-08T03:01:42.512Z,12.20
2022-11-08T03:04:09.506Z,12.20
2022-11-08T03:06:36.454Z,12.20
2022-11-08T03:09:03.877Z,12.20
2022-11-08T03:11:30.901Z,12.20
2022-11-08T03:13:58.038Z,12.20
2022-11-08T03:16:25.125Z,12.20
2022-11-08T03:18:51.905Z,12.20
2022-11-08T03:21:18.783Z,13.40
2022-11-08T03:23:45.547Z,12.20
2022-11-08T03:26:12.575Z,12.20
2022-11-08T03:28:39.409Z,12.20
2022-11-08T03:31:06.572Z,12.10
2022-11-08T03:33:33.588Z,12.10
2022-11-08T03:36:00.402Z,12.10
2022-11-08T03:38:27.178Z,12.10
2022-11-08T03:40:54.067Z,12.00
2022-11-08T03:43:20.866Z,13.80
2022-11-08T03:45:47.764Z,12.00
2022-11-08T03:48:14.736Z,12.00
2022-11-08T03:50:41.706Z,11.90
2022-11-08T03:53:08.506Z,11.90
2022-11-08T03:55:35.352Z,11.90
2022-11-08T03:58:02.246Z,11.90
2022-11-08T04:00:29.894Z,11.90
2022-11-08T04:03:03.015Z,11.80
2022-11-08T04:05:32.301Z,11.80
2022-11-08T04:08:01.555Z,11.80
2022-11-08T04:10:28.606Z,11.80
2022-11-08T04:13:17.065Z,11.80
2022-11-08T04:15:44.820Z,12.00
2022-11-08T04:18:30.318Z,11.80
2022-11-08T04:21:18.938Z,11.80
2022-11-08T04:23:48.392Z,11.80
2022-11-08T04:26:15.798Z,11.80
2022-11-08T04:28:43.574Z,11.80
2022-11-08T04:31:15.422Z,11.80
2022-11-08T04:33:42.682Z,11.80
2022-11-08T04:36:14.844Z,11.70
2022-11-08T04:38:41.915Z,11.80
2022-11-08T04:41:13.198Z,11.70
2022-11-08T04:43:40.718Z,11.70
2022-11-08T04:46:17.710Z,11.70
2022-11-08T04:48:45.852Z,11.70
2022-11-08T04:51:22.933Z,11.70
2022-11-08T04:53:50.317Z,11.70
2022-11-08T04:56:20.753Z,11.70
2022-11-08T04:58:51.778Z,11.60
2022-11-08T05:01:23.038Z,11.60
2022-11-08T05:03:51.869Z,11.60
2022-11-08T05:06:25.518Z,11.60
2022-11-08T05:08:55.101Z,11.50
2022-11-08T05:11:24.766Z,11.50
2022-11-08T05:13:52.495Z,11.50
2022-11-08T05:16:29.128Z,13.80
2022-11-08T05:18:56.696Z,11.50
2022-11-08T05:21:42.705Z,11.40
2022-11-08T05:24:14.259Z,12.20
2022-11-08T05:26:43.861Z,11.40
2022-11-08T05:29:12.630Z,11.40
2022-11-08T05:31:40.211Z,11.40
2022-11-08T05:34:07.628Z,11.40
2022-11-08T05:36:34.873Z,11.40
2022-11-08T05:39:01.784Z,11.40
2022-11-08T05:41:29.549Z,11.40
2022-11-08T05:43:56.461Z,11.40
2022-11-08T05:46:24.067Z,11.40
2022-11-08T05:48:51.571Z,11.30
2022-11-08T05:51:20.213Z,11.30
2022-11-08T05:53:48.541Z,11.30
2022-11-08T05:56:16.580Z,11.30
2022-11-08T05:58:43.991Z,11.30
2022-11-08T06:01:15.780Z,11.30
2022-11-08T06:03:43.032Z,11.30
2022-11-08T06:06:16.635Z,11.20
2022-11-08T06:08:47.677Z,11.20
2022-11-08T06:11:23.915Z,11.20
2022-11-08T06:13:53.248Z,11.20
2022-11-08T06:16:22.556Z,11.20
2022-11-08T06:18:49.792Z,11.20
2022-11-08T06:21:19.934Z,12.40
2022-11-08T06:23:47.506Z,11.10
2022-11-08T06:26:14.487Z,11.10
2022-11-08T06:28:41.438Z,12.40
2022-11-08T06:31:08.252Z,12.70
2022-11-08T06:33:35.371Z,11.10
2022-11-08T06:36:02.277Z,11.10
2022-11-08T06:38:29.362Z,12.20
2022-11-08T06:41:02.038Z,11.00
2022-11-08T06:43:29.226Z,11.10
2022-11-08T06:46:01.286Z,12.20
2022-11-08T06:48:34.048Z,11.00
2022-11-08T06:51:03.598Z,11.00
2022-11-08T06:53:30.397Z,11.00
2022-11-08T06:56:02.514Z,11.00
2022-11-08T06:58:30.908Z,11.10
2022-11-08T07:00:57.975Z,10.90
2022-11-08T07:03:24.869Z,11.20
2022-11-08T07:05:51.645Z,11.00
2022-11-08T07:08:23.606Z,11.00
2022-11-08T07:10:51.518Z,11.00
2022-11-08T07:13:18.670Z,11.00
2022-11-08T07:15:47.558Z,11.00
2022-11-08T07:18:16.675Z,11.70
2022-11-08T07:20:43.827Z,11.10
2022-11-08T07:23:11.925Z,11.10
2022-11-08T07:25:39.040Z,11.10
2022-11-08T07:28:12.716Z,11.20
2022-11-08T07:30:39.535Z,11.20
2022-11-08T07:33:06.280Z,11.30
2022-11-08T07:35:33.396Z,11.30
2022-11-08T07:38:00.194Z,11.40
2022-11-08T07:40:27.194Z,11.50
2022-11-08T07:43:11.304Z,11.50
2022-11-08T07:45:40.791Z,11.60
2022-11-08T07:48:12.359Z,11.70
2022-11-08T07:50:41.534Z,11.80
2022-11-08T07:53:09.376Z,11.90
2022-11-08T07:55:38.764Z,12.00
2022-11-08T07:58:07.274Z,12.10
2022-11-08T08:00:36.915Z,12.20
2022-11-08T08:03:07.090Z,12.30
2022-11-08T08:05:37.993Z,12.50
2022-11-08T08:08:06.260Z,12.60
2022-11-08T08:10:34.749Z,12.70
2022-11-08T08:13:02.478Z,12.80
2022-11-08T08:15:29.358Z,12.90
2022-11-08T08:17:56.268Z,13.10
2022-11-08T08:20:23.044Z,13.20
2022-11-08T08:22:52.222Z,13.30
2022-11-08T08:25:19.334Z,13.50
2022-11-08T08:27:51.951Z,13.60
2022-11-08T08:30:19.823Z,13.70
2022-11-08T08:32:53.507Z,13.80
2022-11-08T08:35:29.681Z,13.90
2022-11-08T08:38:00.845Z,14.10
2022-11-08T08:40:28.928Z,14.20
2022-11-08T08:42:58.598Z,14.20
2022-11-08T08:45:27.106Z,14.30
2022-11-08T08:47:58.688Z,14.40
2022-11-08T08:50:29.172Z,14.50
2022-11-08T08:53:01.301Z,14.60
2022-11-08T08:55:28.447Z,14.80
2022-11-08T08:57:57.384Z,14.90
2022-11-08T09:03:12.277Z,15.10
2022-11-08T09:05:46.444Z,15.20
2022-11-08T09:08:15.031Z,17.10
2022-11-08T09:10:42.442Z,15.50
2022-11-08T09:13:09.444Z,15.50
2022-11-08T09:15:36.413Z,15.60
2022-11-08T09:18:03.370Z,15.70
2022-11-08T09:20:31.407Z,15.80
2022-11-08T09:23:04.673Z,15.90
2022-11-08T09:25:31.998Z,16.00
2022-11-08T09:27:58.821Z,16.10
2022-11-08T09:30:26.557Z,16.20
2022-11-08T09:33:00.833Z,16.30
2022-11-08T09:35:29.177Z,16.40
2022-11-08T09:37:56.360Z,16.40
2022-11-08T09:40:42.445Z,16.50
2022-11-08T09:43:38.509Z,16.70
2022-11-08T09:46:30.070Z,16.60
2022-11-08T09:49:01.262Z,16.60
2022-11-08T09:51:34.918Z,16.70
2022-11-08T09:54:03.512Z,16.80
2022-11-08T09:56:34.510Z,16.90
2022-11-08T09:59:22.940Z,17.00
2022-11-08T10:01:50.060Z,17.10
2022-11-08T10:04:22.133Z,17.20
2022-11-08T10:06:58.202Z,17.30
2022-11-08T10:10:26.429Z,17.40
2022-11-08T10:13:10.803Z,17.60
2022-11-08T10:15:57.492Z,17.70
2022-11-08T10:19:16.432Z,17.80
2022-11-08T10:21:55.072Z,18.00
2022-11-08T10:24:46.592Z,18.10
2022-11-08T10:27:38.238Z,18.20
2022-11-08T10:30:19.472Z,18.30
2022-11-08T10:32:53.759Z,18.30
2022-11-08T10:35:44.352Z,18.40
2022-11-08T10:38:34.642Z,18.40
2022-11-08T10:41:26.021Z,18.40
2022-11-08T10:44:06.571Z,18.50
2022-11-08T10:46:56.497Z,18.50
2022-11-08T10:49:41.402Z,18.60
2022-11-08T10:52:45.452Z,18.60
2022-11-08T10:55:33.339Z,18.60
2022-11-08T10:58:00.823Z,18.70
2022-11-08T11:00:33.437Z,18.70
2022-11-08T11:03:25.224Z,18.70
2022-11-08T11:06:00.905Z,18.70
2022-11-08T11:08:28.204Z,18.70
2022-11-08T11:10:55.492Z,18.80
2022-11-08T11:13:28.940Z,18.80
2022-11-08T11:16:05.496Z,18.80
2022-11-08T11:18:35.237Z,18.80
2022-11-08T11:21:07.078Z,18.80
2022-11-08T11:23:56.320Z,18.80
2022-11-08T11:26:39.853Z,18.80
2022-11-08T11:29:06.754Z,18.90
2022-11-08T11:31:43.233Z,18.90
2022-11-08T11:34:18.958Z,19.10
2022-11-08T11:37:10.806Z,19.00
2022-11-08T11:39:47.383Z,19.10
2022-11-08T11:42:44.930Z,19.10
2022-11-08T11:45:23.751Z,20.20
2022-11-08T11:47:57.883Z,19.20
2022-11-08T11:50:47.288Z,19.40
2022-11-08T11:53:32.806Z,20.40
2022-11-08T11:56:24.412Z,19.30
2022-11-08T11:59:18.553Z,19.30
2022-11-08T12:02:19.292Z,19.30
2022-11-08T12:05:28.340Z,19.30
2022-11-08T12:08:12.955Z,19.30
2022-11-08T12:11:26.895Z,19.30
2022-11-08T12:14:33.982Z,19.20
2022-11-08T12:17:42.001Z,19.20
2022-11-08T12:20:48.425Z,19.20
2022-11-08T12:23:57.390Z,19.20
2022-11-08T12:26:50.080Z,19.20
2022-11-08T12:29:30.350Z,19.10
2022-11-08T12:32:45.484Z,19.10
2022-11-08T12:35:48.748Z,19.10
2022-11-08T12:38:36.306Z,19.10
2022-11-08T12:41:23.467Z,19.10
2022-11-08T12:44:33.662Z,19.10
2022-11-08T12:47:11.883Z,19.20
2022-11-08T12:50:13.706Z,19.20
2022-11-08T12:53:21.859Z,19.30
2022-11-08T12:55:53.326Z,19.40
2022-11-08T12:58:47.627Z,19.50
2022-11-08T13:01:18.699Z,19.60
2022-11-08T13:03:49.318Z,19.90
2022-11-08T13:06:59.543Z,19.70
2022-11-08T13:09:53.413Z,19.80
2022-11-08T13:12:37.070Z,19.90
2022-11-08T13:15:13.520Z,20.00
2022-11-08T13:17:40.406Z,20.00
2022-11-08T13:20:47.474Z,21.00
2022-11-08T13:23:27.775Z,20.10
2022-11-08T13:26:10.352Z,20.10
2022-11-08T13:28:45.352Z,20.10
2022-11-08T13:31:38.594Z,20.30
2022-11-08T13:34:42.188Z,20.00
2022-11-08T13:37:30.613Z,20.00
2022-11-08T13:40:31.657Z,20.00
2022-11-08T13:43:28.114Z,20.00
2022-11-08T13:45:56.178Z,20.00
2022-11-08T13:48:26.102Z,20.00
2022-11-08T13:51:18.381Z,20.10
2022-11-08T13:53:51.500Z,20.00
2022-11-08T13:56:47.560Z,20.00
2022-11-08T13:59:43.210Z,20.00
2022-11-08T14:02:29.712Z,19.90
2022-11-08T14:05:43.339Z,19.90
2022-11-08T14:08:19.755Z,19.80
2022-11-08T14:11:09.954Z,19.80
2022-11-08T14:14:28.857Z,19.80
2022-11-08T14:17:33.768Z,19.70
2022-11-08T14:20:45.351Z,19.60
2022-11-08T14:23:21.887Z,19.60
2022-11-08T14:26:04.562Z,19.50
2022-11-08T14:28:38.692Z,19.40
2022-11-08T14:31:32.734Z,19.30
2022-11-08T14:34:00.876Z,19.30
2022-11-08T14:36:31.479Z,19.20
2022-11-08T14:39:16.154Z,21.20
2022-11-08T14:41:55.552Z,19.10
2022-11-08T14:44:23.619Z,20.20
2022-11-08T14:46:51.743Z,19.10
2022-11-08T14:49:30.819Z,19.00
2022-11-08T14:52:11.762Z,19.00
2022-11-08T14:54:42.836Z,19.70
2022-11-08T14:57:35.557Z,20.10
2022-11-08T15:00:21.817Z,18.90
2022-11-08T15:02:53.103Z,18.80
2022-11-08T15:05:44.636Z,18.80
2022-11-08T15:08:32.183Z,18.70
2022-11-08T15:11:11.665Z,18.70
2022-11-08T15:13:49.648Z,18.70
2022-11-08T15:16:18.119Z,18.60
2022-11-08T15:18:45.509Z,18.50
2022-11-08T15:21:12.254Z,19.60
2022-11-08T15:23:46.321Z,18.50
2022-11-08T15:26:36.337Z,18.40
2022-11-08T15:29:19.436Z,18.40
2022-11-08T15:31:58.490Z,18.40
2022-11-08T15:34:41.159Z,18.30
2022-11-08T15:37:38.851Z,18.20
2022-11-08T15:40:30.088Z,18.20
2022-11-08T15:42:58.638Z,18.10
2022-11-08T15:45:26.721Z,19.30
2022-11-08T15:48:08.991Z,18.00
2022-11-08T15:50:36.416Z,18.00
2022-11-08T15:53:05.331Z,18.10
2022-11-08T15:55:39.087Z,17.80
2022-11-08T15:58:16.440Z,17.90
2022-11-08T16:00:49.171Z,17.60
2022-11-08T16:03:16.343Z,17.60
2022-11-08T16:05:43.401Z,17.70
2022-11-08T16:08:12.470Z,17.40
2022-11-08T16:10:47.163Z,17.30
2022-11-08T16:13:24.644Z,17.20
2022-11-08T16:15:52.004Z,17.10
2022-11-08T16:18:20.145Z,17.00
2022-11-08T16:20:47.258Z,16.90
2022-11-08T16:23:14.699Z,16.80
2022-11-08T16:25:51.733Z,16.70
2022-11-08T16:28:38.778Z,16.60
2022-11-08T16:31:11.558Z,16.50
2022-11-08T16:33:38.438Z,16.40
2022-11-08T16:36:14.080Z,16.40
2022-11-08T16:38:40.933Z,16.30
2022-11-08T16:41:07.702Z,16.30
2022-11-08T16:43:34.521Z,16.20
2022-11-08T16:46:07.366Z,16.10
2022-11-08T16:48:38.517Z,16.10
2022-11-08T16:51:15.918Z,16.10
2022-11-08T16:53:42.772Z,16.00
2022-11-08T16:56:09.588Z,16.00
2022-11-08T16:58:36.631Z,15.90
2022-11-08T17:01:10.285Z,15.90
2022-11-08T17:03:37.681Z,15.90
2022-11-08T17:06:04.540Z,17.10
2022-11-08T17:08:31.390Z,15.70
2022-11-08T17:10:58.367Z,15.70
2022-11-08T17:13:25.165Z,16.50
2022-11-08T17:15:54.688Z,15.70
2022-11-08T17:18:21.889Z,15.60
2022-11-08T17:20:49.386Z,15.60
2022-11-08T17:23:17.633Z,15.60
2022-11-08T17:25:44.781Z,15.60
2022-11-08T17:28:12.897Z,17.00
2022-11-08T17:33:30.997Z,15.50
2022-11-08T17:36:05.329Z,15.50
2022-11-08T17:38:35.121Z,15.40
2022-11-08T17:41:09.895Z,15.40
2022-11-08T17:43:36.800Z,15.40
2022-11-08T17:46:04.100Z,15.50
2022-11-08T17:48:32.701Z,15.40
2022-11-08T17:51:00.136Z,15.50
2022-11-08T17:53:27.679Z,15.50
2022-11-08T17:56:01.330Z,15.50
2022-11-08T17:58:28.618Z,15.50
2022-11-08T18:00:57.811Z,15.50
2022-11-08T18:03:26.549Z,15.50
2022-11-08T18:06:11.868Z,15.50
2022-11-08T18:08:39.282Z,15.60
2022-11-08T18:11:06.771Z,15.60
2022-11-08T18:13:35.192Z,15.60
2022-11-08T18:16:14.143Z,15.60
2022-11-08T18:18:41.680Z,15.60
2022-11-08T18:21:09.951Z,15.60
2022-11-08T18:23:40.060Z,15.60
2022-11-08T18:26:07.669Z,15.60
2022-11-08T18:28:36.414Z,15.60
2022-11-08T18:31:15.904Z,15.60
2022-11-08T18:33:43.247Z,15.50
2022-11-08T18:36:20.258Z,15.50
2022-11-08T18:38:49.045Z,15.50
2022-11-08T18:41:28.714Z,15.50
2022-11-08T18:43:58.702Z,15.60
2022-11-08T18:46:28.915Z,15.50
2022-11-08T18:48:55.855Z,15.50
2022-11-08T18:51:23.687Z,15.60
2022-11-08T18:53:52.382Z,15.60
2022-11-08T18:56:20.572Z,15.50
2022-11-08T18:58:49.170Z,15.60
2022-11-08T19:01:16.543Z,15.60
2022-11-08T19:03:43.791Z,15.60
2022-11-08T19:06:10.812Z,15.60
2022-11-08T19:08:37.829Z,15.70
2022-11-08T19:11:09.422Z,15.70
2022-11-08T19:13:39.922Z,15.80
2022-11-08T19:16:14.951Z,17.10
2022-11-08T19:18:44.675Z,15.80
2022-11-08T19:21:23.391Z,15.80
2022-11-08T19:23:52.516Z,15.90
2022-11-08T19:26:23.047Z,15.90
2022-11-08T19:28:53.236Z,15.90
2022-11-08T19:31:24.213Z,15.90
2022-11-08T19:33:53.558Z,18.00
2022-11-08T19:36:27.748Z,16.00
2022-11-08T19:38:56.490Z,15.90
2022-11-08T19:41:26.425Z,16.00
2022-11-08T19:43:54.931Z,16.00
2022-11-08T19:46:26.684Z,16.00
2022-11-08T19:48:53.714Z,16.00
2022-11-08T19:51:28.131Z,16.00
2022-11-08T19:53:59.114Z,16.10
2022-11-08T19:56:50.013Z,16.10
2022-11-08T19:59:14.206Z,17.60
2022-11-08T20:01:41.383Z,16.10
2022-11-08T20:04:10.801Z,16.00
2022-11-08T20:06:39.029Z,16.00
2022-11-08T20:09:07.779Z,16.10
2022-11-08T20:11:38.326Z,16.10
2022-11-08T20:14:07.123Z,16.50
2022-11-08T20:16:39.953Z,16.20
2022-11-08T20:19:16.651Z,16.20
2022-11-08T20:21:46.079Z,16.20
2022-11-08T20:24:14.571Z,17.30
2022-11-08T20:26:43.049Z,17.00
2022-11-08T20:29:10.487Z,16.30
2022-11-08T20:31:38.712Z,17.00
2022-11-08T20:34:09.927Z,16.30
2022-11-08T20:36:37.720Z,16.40
2022-11-08T20:39:07.835Z,16.40
2022-11-08T20:41:37.756Z,16.40
2022-11-08T20:44:06.624Z,16.40
2022-11-08T20:46:34.972Z,16.40
2022-11-08T20:49:03.546Z,16.40
2022-11-08T20:51:32.261Z,16.40
2022-11-08T20:54:00.913Z,16.40
2022-11-08T20:56:29.025Z,16.40
2022-11-08T20:58:56.327Z,16.50
2022-11-08T21:01:30.644Z,16.40
2022-11-08T21:03:57.877Z,16.40
2022-11-08T21:06:27.751Z,17.10
2022-11-08T21:09:00.811Z,16.30
2022-11-08T21:11:30.877Z,16.20
2022-11-08T21:13:58.323Z,16.40
2022-11-08T21:16:31.609Z,16.10
2022-11-08T21:19:02.224Z,16.10
2022-11-08T21:21:29.186Z,16.10
2022-11-08T21:23:56.287Z,17.50
2022-11-08T21:26:23.957Z,16.00
2022-11-08T21:28:52.081Z,18.30
2022-11-08T21:31:19.174Z,15.90
2022-11-08T21:33:46.138Z,15.90
2022-11-08T21:36:13.446Z,18.20
2022-11-08T21:38:40.830Z,15.80
2022-11-08T21:41:09.830Z,15.90
2022-11-08T21:43:39.652Z,15.70
2022-11-08T21:46:35.697Z,15.70
2022-11-08T21:49:03.402Z,15.60
2022-11-08T21:51:30.668Z,15.60
2022-11-08T21:53:59.120Z,15.50
2022-11-08T21:56:31.220Z,15.50
2022-11-08T21:58:58.268Z,15.40
2022-11-08T22:01:29.815Z,15.40
2022-11-08T22:04:01.114Z,15.40
2022-11-08T22:06:28.921Z,16.30
2022-11-08T22:08:56.019Z,15.30
2022-11-08T22:11:23.308Z,15.20
2022-11-08T22:13:50.517Z,15.20
2022-11-08T22:16:17.432Z,15.60
2022-11-08T22:21:37.769Z,15.10
2022-11-08T22:24:14.539Z,15.10
2022-11-08T22:26:42.169Z,15.00
2022-11-08T22:29:10.390Z,16.90
2022-11-08T22:31:37.445Z,14.90
2022-11-08T22:34:08.213Z,14.90
2022-11-08T22:36:42.922Z,15.50
2022-11-08T22:39:17.462Z,14.80
2022-11-08T22:41:45.924Z,14.80
2022-11-08T22:44:14.364Z,14.80
2022-11-08T22:46:42.929Z,14.80
2022-11-08T22:49:11.374Z,14.70
2022-11-08T22:51:39.532Z,14.70
2022-11-08T22:54:06.737Z,14.70
2022-11-08T22:56:34.002Z,14.70
2022-11-08T22:59:01.083Z,16.10
2022-11-08T23:01:28.001Z,14.70
2022-11-08T23:03:54.810Z,14.70
2022-11-08T23:06:21.700Z,14.70
2022-11-08T23:08:48.769Z,14.70
2022-11-08T23:11:34.676Z,14.70
2022-11-08T23:14:20.725Z,14.70
2022-11-08T23:16:47.537Z,14.80
2022-11-08T23:19:53.438Z,14.80
2022-11-08T23:22:39.090Z,14.80
2022-11-08T23:25:06.673Z,14.80
2022-11-08T23:27:52.521Z,14.80
2022-11-08T23:30:38.011Z,14.80
2022-11-08T23:33:06.768Z,14.80
2022-11-08T23:35:34.158Z,14.90
2022-11-08T23:38:01.093Z,14.90
2022-11-08T23:40:46.376Z,14.90
2022-11-08T23:43:38.142Z,14.90
2022-11-08T23:46:11.743Z,16.60
2022-11-08T23:48:40.275Z,15.00
2022-11-08T23:51:07.868Z,15.00
2022-11-08T23:53:39.909Z,15.00
2022-11-08T23:56:07.118Z,15.00
2022-11-08T23:58:34.210Z,15.00
